Time;durP1;ratioP1;P1;durP2;ratioP2;P2;SDS_P1;SDS_P2;PMS_P1;PMS_P2;Temp;Humidity;BMP_temperature;BMP_pressure;BME280_temperature;BME280_humidity;BME280_pressure;Samples;Min_cycle;Max_cycle;Signal;HPM_P1;HPM_P2
2024/01/06 00:01:13;;;;;;;6.10;5.20;;;2.90;99.90;;;;;;5003698;28;20985;-78
2024/01/06 00:03:41;;;;;;;5.23;4.63;;;2.70;99.90;;;;;;5002641;28;20531;-75
2024/01/06 00:06:08;;;;;;;6.70;5.47;;;2.70;99.90;;;;;;5029981;28;20522;-81
2024/01/06 00:08:35;;;;;;;6.50;4.90;;;2.70;99.90;;;;;;5006299;28;21236;-75
2024/01/06 00:11:03;;;;;;;4.20;3.30;;;2.80;99.90;;;;;;5002456;28;20458;-76
2024/01/06 00:13:30;;;;;;;8.27;3.37;;;2.80;99.90;;;;;;5010720;28;20454;-75
2024/01/06 00:15:57;;;;;;;3.37;3.07;;;2.90;99.90;;;;;;5003977;28;21238;-75
2024/01/06 00:18:24;;;;;;;5.20;3.53;;;3.00;99.90;;;;;;5033845;28;20500;-75
2024/01/06 00:20:53;;;;;;;7.70;4.50;;;3.00;99.90;;;;;;5026462;28;20531;-80
2024/01/06 00:23:19;;;;;;;6.37;5.30;;;2.90;99.90;;;;;;5012922;28;20449;-75
2024/01/06 00:25:46;;;;;;;5.90;5.20;;;2.90;99.90;;;;;;5001735;28;20896;-75
2024/01/06 00:28:13;;;;;;;6.97;5.07;;;2.80;99.90;;;;;;5005003;28;20453;-75
2024/01/06 00:30:40;;;;;;;8.40;4.37;;;2.80;99.90;;;;;;5003024;28;20454;-75
2024/01/06 00:33:07;;;;;;;6.23;5.50;;;2.80;99.90;;;;;;5002274;28;21183;-75
2024/01/06 00:35:34;;;;;;;7.90;6.33;;;2.90;99.90;;;;;;5003758;28;20462;-76
2024/01/06 00:38:03;;;;;;;6.40;5.83;;;2.80;99.90;;;;;;5003968;28;20519;-79
2024/01/06 00:40:32;;;;;;;7.90;5.40;;;2.70;99.90;;;;;;4996411;28;20461;-76
2024/01/06 00:42:59;;;;;;;7.43;6.20;;;2.70;99.90;;;;;;5009146;28;20462;-75
2024/01/06 00:45:26;;;;;;;7.13;5.57;;;2.80;99.90;;;;;;5018748;28;21126;-79
2024/01/06 00:47:53;;;;;;;9.50;7.03;;;2.80;99.90;;;;;;5000181;28;20470;-76
2024/01/06 00:50:20;;;;;;;8.30;6.83;;;2.90;99.90;;;;;;5013059;28;20519;-76
2024/01/06 00:52:47;;;;;;;9.47;5.27;;;2.90;99.90;;;;;;5025752;28;20455;-75
2024/01/06 00:55:15;;;;;;;5.67;5.17;;;3.00;99.90;;;;;;5015944;28;20495;-76
2024/01/06 00:57:42;;;;;;;7.37;5.70;;;3.00;99.90;;;;;;5005022;28;20504;-75
2024/01/06 01:00:10;;;;;;;10.93;6.30;;;3.00;99.90;;;;;;5000151;28;20522;-76
2024/01/06 01:02:37;;;;;;;10.73;7.27;;;3.00;99.90;;;;;;5006685;28;20451;-76
2024/01/06 01:05:07;;;;;;;8.30;6.90;;;3.20;99.90;;;;;;5005097;28;20482;-76
2024/01/06 01:07:34;;;;;;;6.40;5.63;;;3.10;99.90;;;;;;5012973;28;20596;-75
2024/01/06 01:10:01;;;;;;;7.83;6.13;;;3.10;99.90;;;;;;5006684;28;20499;-78
2024/01/06 01:12:29;;;;;;;8.33;5.93;;;3.10;99.90;;;;;;5018383;28;20519;-80
2024/01/06 01:14:56;;;;;;;6.53;5.93;;;3.10;99.90;;;;;;4998014;28;20470;-77
2024/01/06 01:17:23;;;;;;;9.80;6.40;;;3.00;99.90;;;;;;5023439;28;20974;-76
2024/01/06 01:19:50;;;;;;;6.33;5.70;;;3.00;99.90;;;;;;5001484;28;21006;-74
2024/01/06 01:22:17;;;;;;;7.27;5.43;;;2.90;99.90;;;;;;5018603;28;20494;-77
2024/01/06 01:24:44;;;;;;;10.13;6.57;;;2.80;99.90;;;;;;5013848;28;20531;-76
2024/01/06 01:27:11;;;;;;;7.90;5.30;;;2.80;99.90;;;;;;5004923;28;21009;-76
2024/01/06 01:29:39;;;;;;;9.90;5.83;;;2.70;99.90;;;;;;5004538;28;20917;-75
2024/01/06 01:32:07;;;;;;;8.40;5.77;;;2.60;99.90;;;;;;5009283;28;20454;-74
2024/01/06 01:34:34;;;;;;;6.90;6.03;;;2.60;99.90;;;;;;5007065;28;20494;-75
2024/01/06 01:37:01;;;;;;;9.73;7.63;;;2.60;99.90;;;;;;5007502;28;20453;-78
2024/01/06 01:39:28;;;;;;;6.13;5.30;;;2.70;99.90;;;;;;5007524;28;20512;-78
2024/01/06 01:41:55;;;;;;;7.03;5.03;;;2.80;99.90;;;;;;5016680;28;20499;-78
2024/01/06 01:44:22;;;;;;;8.20;5.70;;;2.80;99.90;;;;;;5034136;28;20477;-75
2024/01/06 01:46:50;;;;;;;5.93;5.43;;;2.60;99.90;;;;;;5007034;28;20578;-78
2024/01/06 01:49:17;;;;;;;10.33;6.67;;;2.60;99.90;;;;;;4990439;28;20656;-80
2024/01/06 01:51:45;;;;;;;7.27;6.27;;;2.60;99.90;;;;;;5005954;28;21202;-75
2024/01/06 01:54:12;;;;;;;9.10;6.43;;;2.60;99.90;;;;;;5004222;28;20779;-77
2024/01/06 01:56:41;;;;;;;6.50;5.87;;;2.60;99.90;;;;;;5007333;28;20551;-75
2024/01/06 01:59:12;;;;;;;8.37;6.27;;;2.60;99.90;;;;;;5007928;28;20454;-76
2024/01/06 02:01:40;;;;;;;5.93;5.00;;;2.60;99.90;;;;;;5001438;28;20501;-76
2024/01/06 02:04:09;;;;;;;9.57;6.20;;;2.60;99.90;;;;;;5017669;28;20448;-75
2024/01/06 02:06:36;;;;;;;8.33;6.73;;;2.70;99.90;;;;;;5010741;28;20984;-75
2024/01/06 02:09:03;;;;;;;7.77;6.97;;;2.70;99.90;;;;;;5001609;28;20484;-77
2024/01/06 02:11:30;;;;;;;7.63;6.80;;;2.70;99.90;;;;;;5002619;28;20457;-75
2024/01/06 02:13:57;;;;;;;11.57;7.90;;;2.80;99.90;;;;;;5005701;28;20447;-75
2024/01/06 02:16:24;;;;;;;10.23;7.17;;;2.70;99.90;;;;;;5013756;28;20496;-75
2024/01/06 02:18:51;;;;;;;11.63;6.47;;;2.80;99.90;;;;;;5014729;28;20442;-75
2024/01/06 02:21:21;;;;;;;7.60;6.90;;;2.80;99.90;;;;;;5003352;28;20459;-75
2024/01/06 02:23:50;;;;;;;8.67;6.70;;;2.90;99.90;;;;;;5004061;28;20504;-75
2024/01/06 02:26:17;;;;;;;8.70;5.77;;;2.90;99.90;;;;;;5001683;28;20519;-75
2024/01/06 02:28:47;;;;;;;9.00;8.10;;;2.80;99.90;;;;;;5004900;28;20455;-75
2024/01/06 02:31:14;;;;;;;8.17;6.90;;;2.80;99.90;;;;;;5017620;28;20551;-74
2024/01/06 02:33:41;;;;;;;7.77;6.57;;;2.90;99.90;;;;;;5019708;28;20506;-78
2024/01/06 02:36:08;;;;;;;10.03;7.90;;;2.90;99.90;;;;;;5005336;28;20475;-75
2024/01/06 02:38:35;;;;;;;10.07;8.00;;;2.90;99.90;;;;;;5004965;28;20450;-79
2024/01/06 02:41:04;;;;;;;7.70;6.70;;;2.90;99.90;;;;;;5003805;28;20505;-78
2024/01/06 02:43:31;;;;;;;9.00;6.93;;;2.90;99.90;;;;;;4999266;28;20490;-75
2024/01/06 02:45:58;;;;;;;9.43;7.30;;;2.90;99.90;;;;;;5005386;28;20982;-75
2024/01/06 02:48:25;;;;;;;8.47;6.77;;;3.00;99.90;;;;;;5005718;28;20523;-76
2024/01/06 02:50:52;;;;;;;7.67;6.13;;;2.90;99.90;;;;;;5013188;28;20486;-75
2024/01/06 02:53:18;;;;;;;8.90;7.27;;;3.00;99.90;;;;;;5023224;28;20517;-76
2024/01/06 02:55:45;;;;;;;9.70;6.70;;;3.00;99.90;;;;;;5002914;28;20552;-77
2024/01/06 02:58:14;;;;;;;7.33;6.23;;;2.90;99.90;;;;;;5002737;28;20454;-75
2024/01/06 03:00:41;;;;;;;9.20;8.37;;;2.80;99.90;;;;;;5003248;28;20490;-75
2024/01/06 03:03:07;;;;;;;8.57;7.33;;;2.80;99.90;;;;;;5004042;28;20574;-75
2024/01/06 03:05:36;;;;;;;8.90;6.30;;;2.90;99.90;;;;;;5002798;28;20475;-75
2024/01/06 03:08:04;;;;;;;6.20;5.70;;;2.90;99.90;;;;;;5002517;28;21020;-75
2024/01/06 03:10:31;;;;;;;6.23;5.63;;;2.90;99.90;;;;;;5003469;28;21004;-79
2024/01/06 03:12:58;;;;;;;10.93;5.83;;;2.80;99.90;;;;;;4998371;28;21032;-75
2024/01/06 03:15:26;;;;;;;6.67;6.00;;;2.90;99.90;;;;;;4996483;28;20455;-76
2024/01/06 03:17:53;;;;;;;7.40;5.67;;;2.90;99.90;;;;;;5053733;28;20643;-78
2024/01/06 03:20:20;;;;;;;8.93;6.00;;;2.90;99.90;;;;;;5001919;28;20463;-75
2024/01/06 03:22:47;;;;;;;6.90;6.20;;;2.80;99.90;;;;;;5002613;28;20579;-75
2024/01/06 03:25:14;;;;;;;6.73;6.03;;;2.80;99.90;;;;;;5013633;28;21362;-76
2024/01/06 03:27:41;;;;;;;7.57;6.70;;;2.70;99.90;;;;;;5002583;28;20490;-75
2024/01/06 03:30:09;;;;;;;8.77;7.90;;;2.70;99.90;;;;;;5000192;28;20488;-78
2024/01/06 03:32:37;;;;;;;6.83;6.13;;;2.70;99.90;;;;;;5002305;28;20442;-75
2024/01/06 03:35:06;;;;;;;7.70;5.53;;;2.70;99.90;;;;;;5003357;28;20523;-75
2024/01/06 03:37:33;;;;;;;8.07;5.73;;;2.70;99.90;;;;;;5001392;28;20992;-75
2024/01/06 03:40:00;;;;;;;8.90;6.17;;;2.60;99.90;;;;;;5002274;28;20530;-76
2024/01/06 03:42:27;;;;;;;7.43;6.30;;;2.60;99.90;;;;;;4998950;28;20495;-77
2024/01/06 03:44:54;;;;;;;7.27;6.57;;;2.60;99.90;;;;;;4997999;28;20540;-76
2024/01/06 03:47:21;;;;;;;5.83;4.60;;;2.60;99.90;;;;;;5009211;28;20520;-76
2024/01/06 03:49:49;;;;;;;11.63;6.10;;;2.60;99.90;;;;;;5002991;28;20456;-78
2024/01/06 03:52:16;;;;;;;7.13;6.10;;;2.60;99.90;;;;;;4999397;28;20490;-79
2024/01/06 03:54:43;;;;;;;6.80;6.07;;;2.70;99.90;;;;;;5000855;28;20515;-76
2024/01/06 03:57:10;;;;;;;5.80;5.30;;;2.70;99.90;;;;;;5010506;28;20472;-80
2024/01/06 03:59:37;;;;;;;5.77;5.17;;;2.70;99.90;;;;;;4993768;28;20947;-81
2024/01/06 04:02:04;;;;;;;8.27;7.47;;;2.70;99.90;;;;;;5005991;28;20474;-77
2024/01/06 04:04:31;;;;;;;7.57;5.10;;;2.80;99.90;;;;;;5002624;28;20474;-75
2024/01/06 04:07:01;;;;;;;13.93;6.60;;;2.80;99.90;;;;;;4997547;28;20520;-80
2024/01/06 04:09:28;;;;;;;5.47;4.93;;;2.80;99.90;;;;;;5008597;28;20903;-75
2024/01/06 04:11:55;;;;;;;9.17;6.20;;;2.80;99.90;;;;;;5014151;28;20455;-76
2024/01/06 04:14:22;;;;;;;6.93;6.23;;;2.90;99.90;;;;;;5004020;28;20487;-76
2024/01/06 04:16:49;;;;;;;6.47;5.80;;;2.90;99.90;;;;;;5040907;28;20479;-76
2024/01/06 04:19:16;;;;;;;7.70;6.13;;;3.10;99.90;;;;;;5006168;28;20472;-76
2024/01/06 04:21:43;;;;;;;6.23;5.67;;;3.10;99.90;;;;;;5002444;28;20544;-78
2024/01/06 04:24:11;;;;;;;6.20;5.50;;;3.10;99.90;;;;;;5009712;28;20447;-77
2024/01/06 04:26:39;;;;;;;6.67;5.20;;;3.10;99.90;;;;;;5000445;28;20511;-76
2024/01/06 04:29:06;;;;;;;6.23;5.63;;;3.10;99.90;;;;;;5002491;28;20451;-76
2024/01/06 04:31:33;;;;;;;7.90;6.67;;;3.00;99.90;;;;;;5001573;28;21249;-76
2024/01/06 04:34:00;;;;;;;8.83;5.40;;;3.00;99.90;;;;;;5003140;28;20546;-76
2024/01/06 04:36:27;;;;;;;7.07;6.00;;;3.00;99.90;;;;;;5001444;28;21031;-77
2024/01/06 04:38:53;;;;;;;7.23;6.43;;;3.10;99.90;;;;;;5003072;28;20452;-77
2024/01/06 04:41:22;;;;;;;6.47;5.87;;;3.10;99.90;;;;;;4999821;28;20467;-76
2024/01/06 04:43:49;;;;;;;6.83;4.93;;;3.10;99.90;;;;;;5006021;28;20479;-76
2024/01/06 04:46:16;;;;;;;9.00;6.70;;;3.10;99.90;;;;;;5006244;28;20938;-76
2024/01/06 04:48:43;;;;;;;8.00;7.20;;;3.00;99.90;;;;;;4997932;28;20514;-76
2024/01/06 04:51:11;;;;;;;7.23;6.13;;;2.90;99.90;;;;;;5000394;28;20475;-76
2024/01/06 04:53:38;;;;;;;7.50;5.63;;;2.90;99.90;;;;;;5001914;28;20450;-75
2024/01/06 04:56:05;;;;;;;6.67;6.07;;;3.00;99.90;;;;;;5006382;28;20479;-77
2024/01/06 04:58:34;;;;;;;7.30;6.70;;;3.00;99.90;;;;;;5001084;28;20470;-76
2024/01/06 05:01:02;;;;;;;7.37;5.50;;;2.90;99.90;;;;;;5022230;28;21355;-75
2024/01/06 05:03:29;;;;;;;9.23;6.37;;;3.00;99.90;;;;;;5029560;28;20474;-76
2024/01/06 05:05:56;;;;;;;8.30;5.53;;;3.00;99.90;;;;;;5001963;28;20979;-78
2024/01/06 05:08:24;;;;;;;6.37;5.77;;;3.10;99.90;;;;;;5012872;28;20538;-75
2024/01/06 05:10:53;;;;;;;6.83;5.90;;;3.10;99.90;;;;;;5003173;28;20458;-75
2024/01/06 05:13:20;;;;;;;9.10;6.97;;;3.20;99.90;;;;;;5003766;28;20447;-77
2024/01/06 05:15:48;;;;;;;7.10;6.50;;;3.20;99.90;;;;;;5007236;28;20525;-76
2024/01/06 05:18:15;;;;;;;5.70;5.20;;;3.10;99.90;;;;;;5038848;28;20519;-76
2024/01/06 05:20:42;;;;;;;5.63;5.00;;;3.10;99.90;;;;;;4996676;28;20468;-77
2024/01/06 05:23:09;;;;;;;6.23;5.73;;;3.10;99.90;;;;;;5000838;28;20455;-79
2024/01/06 05:25:36;;;;;;;6.93;5.40;;;3.20;99.90;;;;;;5012276;28;20519;-78
2024/01/06 05:28:03;;;;;;;12.33;6.23;;;3.20;99.90;;;;;;5002045;28;20523;-75
2024/01/06 05:30:30;;;;;;;7.73;6.93;;;3.20;99.90;;;;;;5009725;28;20462;-75
2024/01/06 05:32:58;;;;;;;8.40;7.00;;;3.20;99.90;;;;;;4996392;28;20536;-78
2024/01/06 05:35:25;;;;;;;7.67;6.97;;;3.20;99.90;;;;;;5004828;28;20479;-75
2024/01/06 05:37:52;;;;;;;5.00;4.60;;;3.30;99.90;;;;;;5009280;28;20536;-80
2024/01/06 05:40:19;;;;;;;6.20;5.60;;;3.20;99.90;;;;;;5003705;28;20861;-77
2024/01/06 05:42:46;;;;;;;7.63;6.23;;;3.20;99.90;;;;;;5010634;28;20571;-76
2024/01/06 05:45:13;;;;;;;7.10;5.90;;;3.10;99.90;;;;;;5012032;28;20495;-76
2024/01/06 05:47:40;;;;;;;6.70;5.87;;;3.20;99.90;;;;;;5004528;28;20499;-76
2024/01/06 05:50:11;;;;;;;7.17;6.47;;;3.20;99.90;;;;;;5004781;28;20570;-75
2024/01/06 05:52:37;;;;;;;6.40;5.80;;;3.20;99.90;;;;;;5003831;28;20528;-79
2024/01/06 05:55:05;;;;;;;9.93;6.07;;;3.20;99.90;;;;;;4996305;28;20462;-76
2024/01/06 05:57:32;;;;;;;6.87;6.17;;;3.20;99.90;;;;;;5003713;28;20962;-75
2024/01/06 06:00:00;;;;;;;7.90;6.43;;;3.10;99.90;;;;;;5004630;28;20455;-76
2024/01/06 06:02:27;;;;;;;7.37;5.77;;;3.20;99.90;;;;;;5003591;28;20490;-75
2024/01/06 06:04:54;;;;;;;10.53;9.40;;;3.10;99.90;;;;;;5019617;28;20486;-76
2024/01/06 06:07:23;;;;;;;15.30;11.27;;;3.10;99.90;;;;;;4998337;28;20910;-79
2024/01/06 06:09:49;;;;;;;20.47;15.90;;;3.10;99.90;;;;;;5005186;28;20445;-76
2024/01/06 06:12:17;;;;;;;14.70;12.33;;;3.10;99.90;;;;;;5000413;28;20972;-76
2024/01/06 06:14:44;;;;;;;20.13;13.30;;;3.10;99.90;;;;;;5004119;28;20486;-76
2024/01/06 06:17:10;;;;;;;14.30;11.10;;;3.10;99.90;;;;;;5006215;28;20946;-76
2024/01/06 06:19:37;;;;;;;9.20;7.70;;;3.10;99.90;;;;;;5013396;28;21401;-78
2024/01/06 06:22:05;;;;;;;5.60;4.93;;;3.10;99.90;;;;;;5003586;28;20481;-78
2024/01/06 06:24:33;;;;;;;7.57;6.73;;;3.10;99.90;;;;;;5008535;28;20508;-78
2024/01/06 06:27:00;;;;;;;7.77;6.13;;;3.20;99.90;;;;;;5001631;28;20486;-76
2024/01/06 06:29:28;;;;;;;13.70;6.40;;;3.10;99.90;;;;;;5000269;28;20553;-77
2024/01/06 06:31:57;;;;;;;8.10;7.30;;;3.10;99.90;;;;;;4993279;28;20459;-76
2024/01/06 06:34:23;;;;;;;8.57;7.07;;;3.10;99.90;;;;;;5023133;28;20486;-75
2024/01/06 06:36:50;;;;;;;7.47;6.07;;;3.10;99.90;;;;;;5001998;28;20532;-76
2024/01/06 06:39:18;;;;;;;7.93;6.67;;;3.10;99.90;;;;;;5005500;28;20467;-83
2024/01/06 06:41:46;;;;;;;7.27;6.53;;;3.00;99.90;;;;;;5004121;28;20443;-76
2024/01/06 06:44:13;;;;;;;9.00;7.47;;;3.00;99.90;;;;;;5000442;28;20494;-80
2024/01/06 06:46:40;;;;;;;8.20;7.50;;;3.10;99.90;;;;;;5002571;28;20471;-76
2024/01/06 06:49:07;;;;;;;7.23;6.57;;;3.10;99.90;;;;;;4997022;28;20486;-76
2024/01/06 06:51:34;;;;;;;10.63;8.33;;;3.10;99.90;;;;;;4996742;28;20552;-76
2024/01/06 06:54:01;;;;;;;9.33;8.50;;;3.10;99.90;;;;;;5003252;28;20469;-82
2024/01/06 06:56:29;;;;;;;9.07;8.17;;;3.20;99.90;;;;;;5005744;28;20486;-82
2024/01/06 06:58:57;;;;;;;9.03;8.00;;;3.20;99.90;;;;;;5026465;28;20506;-76
2024/01/06 07:01:24;;;;;;;12.13;6.73;;;3.10;99.90;;;;;;5026330;28;20459;-75
2024/01/06 07:03:51;;;;;;;8.70;6.90;;;3.10;99.90;;;;;;5022038;28;20533;-76
2024/01/06 07:06:18;;;;;;;8.93;8.00;;;3.00;99.90;;;;;;5006789;28;20532;-75
2024/01/06 07:08:45;;;;;;;9.00;7.53;;;3.00;99.90;;;;;;5001381;28;20536;-76
2024/01/06 07:11:14;;;;;;;8.23;7.53;;;3.00;99.90;;;;;;5018616;28;20523;-76
2024/01/06 07:13:41;;;;;;;7.80;7.10;;;3.00;99.90;;;;;;5026442;28;20447;-77
2024/01/06 07:16:11;;;;;;;7.70;6.97;;;3.00;99.90;;;;;;5018082;28;20575;-76
2024/01/06 07:18:38;;;;;;;8.60;7.70;;;3.00;99.90;;;;;;5018358;28;20462;-76
2024/01/06 07:21:07;;;;;;;9.83;7.43;;;3.10;99.90;;;;;;5017557;28;20463;-78
2024/01/06 07:23:35;;;;;;;8.90;8.07;;;3.10;99.90;;;;;;5031778;28;20458;-82
2024/01/06 07:26:02;;;;;;;10.40;9.17;;;3.10;99.90;;;;;;5003529;28;20474;-76
2024/01/06 07:28:30;;;;;;;14.23;9.80;;;3.10;99.90;;;;;;5046024;28;20569;-79
2024/01/06 07:30:57;;;;;;;15.30;13.07;;;3.10;99.90;;;;;;5007434;28;20988;-76
2024/01/06 07:33:25;;;;;;;11.77;8.47;;;3.20;99.90;;;;;;5025397;28;20458;-76
2024/01/06 07:35:52;;;;;;;13.80;11.17;;;3.20;99.90;;;;;;5015812;28;20466;-79
2024/01/06 07:38:19;;;;;;;12.03;9.63;;;3.20;99.90;;;;;;5028832;28;20531;-77
2024/01/06 07:40:46;;;;;;;33.90;16.80;;;3.10;99.90;;;;;;5019930;28;20529;-76
2024/01/06 07:43:15;;;;;;;9.07;8.30;;;3.20;99.90;;;;;;5007197;28;20559;-80
2024/01/06 07:45:42;;;;;;;9.20;8.40;;;3.20;99.90;;;;;;5038392;28;20884;-76
2024/01/06 07:48:09;;;;;;;10.33;8.10;;;3.20;99.90;;;;;;5004008;28;20544;-78
2024/01/06 07:50:38;;;;;;;15.07;9.50;;;3.20;99.90;;;;;;5062169;28;20458;-78
2024/01/06 07:53:05;;;;;;;9.40;8.40;;;3.30;99.90;;;;;;5010117;28;20474;-77
2024/01/06 07:55:32;;;;;;;10.87;9.80;;;3.30;99.90;;;;;;5014022;28;20471;-77
2024/01/06 07:57:58;;;;;;;10.17;9.17;;;3.30;99.90;;;;;;4999705;28;20979;-79
2024/01/06 08:00:26;;;;;;;10.40;9.43;;;3.30;99.90;;;;;;5004035;28;20486;-76
2024/01/06 08:02:53;;;;;;;10.50;9.30;;;3.30;99.90;;;;;;5004007;28;20498;-76
2024/01/06 08:05:19;;;;;;;8.40;7.67;;;3.40;99.90;;;;;;5002840;28;20487;-78
2024/01/06 08:07:48;;;;;;;9.17;8.17;;;3.40;99.90;;;;;;5001184;28;20520;-76
2024/01/06 08:10:15;;;;;;;9.90;8.77;;;3.40;99.90;;;;;;5001924;28;20507;-76
2024/01/06 08:12:42;;;;;;;11.37;8.40;;;3.30;99.90;;;;;;4999911;28;20492;-75
2024/01/06 08:15:09;;;;;;;9.80;8.90;;;3.30;99.90;;;;;;4993397;28;20580;-75
2024/01/06 08:17:37;;;;;;;10.97;9.40;;;3.40;99.90;;;;;;5019351;28;20500;-76
2024/01/06 08:20:04;;;;;;;10.10;9.07;;;3.40;99.90;;;;;;5003864;28;20990;-75
2024/01/06 08:22:31;;;;;;;13.60;10.40;;;3.40;99.90;;;;;;4999232;28;20471;-76
2024/01/06 08:25:00;;;;;;;13.00;10.67;;;3.40;99.90;;;;;;5004160;28;20463;-78
2024/01/06 08:27:27;;;;;;;11.97;10.20;;;3.50;99.90;;;;;;5002730;28;20490;-80
2024/01/06 08:29:54;;;;;;;18.43;10.93;;;3.50;99.90;;;;;;5002594;28;20527;-76
2024/01/06 08:32:21;;;;;;;10.17;9.20;;;3.60;99.90;;;;;;5003363;28;20505;-76
2024/01/06 08:34:48;;;;;;;10.17;9.13;;;3.70;99.90;;;;;;4999217;28;20493;-76
2024/01/06 08:37:15;;;;;;;11.30;10.10;;;3.70;99.90;;;;;;5000663;28;20958;-75
2024/01/06 08:39:42;;;;;;;15.50;12.17;;;3.80;99.90;;;;;;5001990;28;20498;-81
2024/01/06 08:42:10;;;;;;;10.53;9.50;;;3.80;99.90;;;;;;5003578;28;20542;-76
2024/01/06 08:44:37;;;;;;;13.23;10.53;;;3.80;99.90;;;;;;5002322;28;20443;-76
2024/01/06 08:47:04;;;;;;;13.60;11.70;;;3.90;99.90;;;;;;5006001;28;21010;-76
2024/01/06 08:49:31;;;;;;;14.90;10.30;;;4.00;99.90;;;;;;5004767;28;20515;-76
2024/01/06 08:51:58;;;;;;;14.70;12.30;;;4.00;99.90;;;;;;5001159;28;21024;-78
2024/01/06 08:54:26;;;;;;;15.03;11.57;;;4.10;99.90;;;;;;5030133;28;20443;-79
2024/01/06 08:56:53;;;;;;;16.03;12.47;;;4.20;99.90;;;;;;4999414;28;20555;-76
2024/01/06 08:59:21;;;;;;;15.00;13.50;;;4.10;99.90;;;;;;5005170;28;20961;-76
2024/01/06 09:01:48;;;;;;;14.57;13.27;;;4.10;99.90;;;;;;5008692;28;20527;-75
2024/01/06 09:04:15;;;;;;;14.77;13.10;;;4.10;99.90;;;;;;5013040;28;21192;-76
2024/01/06 09:06:42;;;;;;;15.63;13.60;;;4.10;99.90;;;;;;5012511;28;20497;-76
2024/01/06 09:09:09;;;;;;;17.97;13.40;;;4.10;99.90;;;;;;5012010;28;21044;-76
2024/01/06 09:11:36;;;;;;;15.73;12.60;;;4.10;99.90;;;;;;5015006;28;20435;-76
2024/01/06 09:14:03;;;;;;;16.63;12.90;;;4.10;99.90;;;;;;5006989;28;21151;-81
2024/01/06 09:16:32;;;;;;;14.23;12.50;;;4.10;99.90;;;;;;5018593;28;20542;-81
2024/01/06 09:18:59;;;;;;;13.80;12.37;;;4.10;99.90;;;;;;5030675;28;20470;-76
2024/01/06 09:21:26;;;;;;;15.53;13.20;;;4.10;99.90;;;;;;5026683;28;20485;-77
2024/01/06 09:23:52;;;;;;;14.13;11.93;;;4.10;99.90;;;;;;5033008;28;20454;-77
2024/01/06 09:26:20;;;;;;;14.57;12.37;;;4.10;99.90;;;;;;5012788;28;20859;-78
2024/01/06 09:28:47;;;;;;;15.13;13.50;;;4.20;99.90;;;;;;5008118;28;20487;-78
2024/01/06 09:31:14;;;;;;;18.90;12.90;;;4.20;99.90;;;;;;5006723;28;20464;-78
2024/01/06 09:33:43;;;;;;;13.97;11.70;;;4.20;99.90;;;;;;5006033;28;20450;-78
2024/01/06 09:36:12;;;;;;;21.47;14.40;;;4.20;99.90;;;;;;5004157;28;20463;-78
2024/01/06 09:38:39;;;;;;;13.37;11.83;;;4.10;99.90;;;;;;5010258;28;20942;-80
2024/01/06 09:41:06;;;;;;;16.00;12.47;;;4.20;99.90;;;;;;5003836;28;20463;-77
2024/01/06 09:43:33;;;;;;;15.87;14.17;;;4.20;99.90;;;;;;5004548;28;20875;-78
2024/01/06 09:46:07;;;;;;;18.50;12.80;;;4.20;99.90;;;;;;5073116;28;20483;-77
2024/01/06 09:48:40;;;;;;;16.50;12.90;;;4.30;99.90;;;;;;5063878;28;20499;-77
2024/01/06 09:51:11;;;;;;;18.03;13.03;;;4.30;99.90;;;;;;5041842;28;21027;-78
2024/01/06 09:53:47;;;;;;;17.47;12.07;;;4.30;99.90;;;;;;5033395;28;20769;-78
2024/01/06 09:56:16;;;;;;;17.37;13.27;;;4.30;99.90;;;;;;5012232;28;20462;-79
2024/01/06 09:58:44;;;;;;;15.77;12.67;;;4.30;99.90;;;;;;5008531;28;20558;-78
2024/01/06 10:01:12;;;;;;;12.63;11.17;;;4.30;99.90;;;;;;5017913;28;20474;-79
2024/01/06 10:03:39;;;;;;;12.87;11.03;;;4.30;99.90;;;;;;5016393;28;20451;-78
2024/01/06 10:06:09;;;;;;;13.97;11.57;;;4.20;99.90;;;;;;5007776;28;20549;-79
2024/01/06 10:08:36;;;;;;;16.70;13.60;;;4.30;99.90;;;;;;5024293;28;21003;-81
2024/01/06 10:11:03;;;;;;;16.87;13.00;;;4.40;99.90;;;;;;5003168;28;20528;-78
2024/01/06 10:13:30;;;;;;;19.27;13.77;;;4.50;99.90;;;;;;5007175;28;20460;-79
2024/01/06 10:15:57;;;;;;;15.30;12.93;;;4.40;99.90;;;;;;5057665;28;20485;-78
2024/01/06 10:18:29;;;;;;;21.60;12.93;;;4.40;99.90;;;;;;5092049;28;20559;-79
2024/01/06 10:20:56;;;;;;;17.37;12.63;;;4.50;99.90;;;;;;5023293;28;20466;-79
2024/01/06 10:23:27;;;;;;;13.30;11.33;;;4.40;99.90;;;;;;5009759;28;21028;-79
2024/01/06 10:25:54;;;;;;;15.00;13.07;;;4.30;99.90;;;;;;5009930;28;20957;-81
2024/01/06 10:28:22;;;;;;;14.43;12.93;;;4.30;99.90;;;;;;5003369;28;20521;-84
2024/01/06 10:30:50;;;;;;;14.40;11.83;;;4.30;99.90;;;;;;5002084;28;20542;-78
2024/01/06 10:33:18;;;;;;;18.00;12.53;;;4.40;99.90;;;;;;5003798;28;20449;-78
2024/01/06 10:35:45;;;;;;;14.47;11.40;;;4.30;99.90;;;;;;5017915;28;20555;-82
2024/01/06 10:38:12;;;;;;;14.73;9.93;;;4.30;99.90;;;;;;5006472;28;20515;-80
2024/01/06 10:40:41;;;;;;;13.53;11.07;;;4.30;99.90;;;;;;4998509;28;20526;-82
2024/01/06 10:43:10;;;;;;;15.93;11.50;;;4.20;99.90;;;;;;5006850;28;20533;-81
2024/01/06 10:45:37;;;;;;;14.37;11.07;;;4.30;99.90;;;;;;5031955;28;20951;-78
2024/01/06 10:48:07;;;;;;;14.10;9.10;;;4.50;99.90;;;;;;5006342;28;20494;-79
2024/01/06 10:50:34;;;;;;;12.03;9.80;;;4.40;99.90;;;;;;4999033;28;20555;-79
2024/01/06 10:53:03;;;;;;;13.10;9.30;;;4.40;99.90;;;;;;5028344;28;20529;-79
2024/01/06 10:55:31;;;;;;;8.53;7.43;;;4.40;99.90;;;;;;4997594;28;20880;-78
2024/01/06 10:58:01;;;;;;;14.80;9.70;;;4.40;99.90;;;;;;5035848;28;20457;-77
2024/01/06 11:00:29;;;;;;;8.80;7.77;;;4.40;99.90;;;;;;5005965;28;20443;-79
2024/01/06 11:02:57;;;;;;;14.00;9.90;;;4.40;99.90;;;;;;5016360;28;20550;-79
2024/01/06 11:05:25;;;;;;;10.63;9.53;;;4.40;99.90;;;;;;5017253;28;20507;-78
2024/01/06 11:07:59;;;;;;;11.27;9.50;;;4.40;99.90;;;;;;5079315;28;20503;-79
2024/01/06 11:10:29;;;;;;;8.57;6.70;;;4.40;99.90;;;;;;5040036;28;20494;-78
2024/01/06 11:13:16;;;;;;;11.03;8.70;;;4.50;99.90;;;;;;5054615;28;20950;-81
2024/01/06 11:15:44;;;;;;;8.83;6.07;;;4.50;99.90;;;;;;5026708;28;20461;-78
2024/01/06 11:18:34;;;;;;;10.30;8.90;;;4.40;99.90;;;;;;5069977;28;20447;-80
2024/01/06 11:21:21;;;;;;;8.07;6.77;;;4.50;99.90;;;;;;5023500;28;20471;-77
2024/01/06 11:24:10;;;;;;;6.93;6.10;;;4.50;99.90;;;;;;5010376;28;20461;-79
2024/01/06 11:26:40;;;;;;;7.10;6.40;;;4.50;99.90;;;;;;5001655;28;20449;-78
2024/01/06 11:29:10;;;;;;;8.20;7.00;;;4.50;99.90;;;;;;5012212;28;20519;-77
2024/01/06 11:31:38;;;;;;;6.37;5.17;;;4.40;99.90;;;;;;5025708;28;20539;-80
2024/01/06 11:34:15;;;;;;;7.83;7.17;;;4.40;99.90;;;;;;5006709;28;20525;-79
2024/01/06 11:36:45;;;;;;;6.97;5.93;;;4.50;99.90;;;;;;5013511;28;20455;-81
2024/01/06 11:39:45;;;;;;;9.03;6.33;;;4.40;99.90;;;;;;5021932;28;20549;-83
2024/01/06 11:42:13;;;;;;;7.03;6.40;;;4.40;99.90;;;;;;5005501;28;20488;-79
2024/01/06 11:44:45;;;;;;;6.03;5.37;;;4.40;99.90;;;;;;5034136;28;20542;-80
2024/01/06 11:47:13;;;;;;;9.63;7.43;;;4.40;99.90;;;;;;5006742;28;20466;-78
2024/01/06 11:49:39;;;;;;;7.80;6.83;;;4.50;99.90;;;;;;5031078;28;20483;-81
2024/01/06 11:52:07;;;;;;;9.10;7.13;;;4.50;99.90;;;;;;5016209;28;20443;-80
2024/01/06 11:54:35;;;;;;;5.80;4.87;;;4.40;99.90;;;;;;5019200;28;20525;-82
2024/01/06 11:57:02;;;;;;;6.60;5.50;;;4.40;99.90;;;;;;5019516;28;20488;-79
2024/01/06 11:59:30;;;;;;;7.93;5.13;;;4.50;99.90;;;;;;5001041;28;20463;-78
2024/01/06 12:01:58;;;;;;;6.97;5.03;;;4.50;99.90;;;;;;5020230;28;20448;-80
2024/01/06 12:04:26;;;;;;;5.03;4.53;;;4.50;99.90;;;;;;5005566;28;20489;-78
2024/01/06 12:06:54;;;;;;;5.57;4.83;;;4.40;99.90;;;;;;5036675;28;21018;-81
2024/01/06 12:09:24;;;;;;;5.50;4.40;;;4.40;99.90;;;;;;5066302;28;20600;-82
2024/01/06 12:12:02;;;;;;;4.00;3.60;;;4.40;99.90;;;;;;5020577;28;20544;-82
2024/01/06 12:14:29;;;;;;;3.50;3.20;;;4.40;99.90;;;;;;5007621;28;20503;-78
2024/01/06 12:17:00;;;;;;;3.00;2.70;;;4.20;99.90;;;;;;5033015;28;20524;-80
2024/01/06 12:19:29;;;;;;;3.30;2.80;;;4.30;99.90;;;;;;5082885;28;20442;-78
2024/01/06 12:21:56;;;;;;;3.43;3.13;;;4.40;99.90;;;;;;5006817;28;20558;-79
2024/01/06 12:24:23;;;;;;;3.47;2.90;;;4.30;99.90;;;;;;5073439;28;20523;-81
2024/01/06 12:26:51;;;;;;;3.87;2.93;;;4.30;99.90;;;;;;5015466;28;20462;-78
2024/01/06 12:29:18;;;;;;;3.87;3.50;;;4.20;99.90;;;;;;5061133;28;21071;-77
2024/01/06 12:31:45;;;;;;;3.73;3.43;;;4.20;99.90;;;;;;5003018;28;20490;-77
2024/01/06 12:34:13;;;;;;;4.03;3.40;;;4.20;99.90;;;;;;5003622;28;20556;-76
2024/01/06 12:36:44;;;;;;;4.10;3.80;;;4.20;99.90;;;;;;5009531;28;21019;-79
2024/01/06 12:39:14;;;;;;;4.43;3.43;;;4.30;99.90;;;;;;5003888;28;20453;-77
2024/01/06 12:41:41;;;;;;;4.80;4.00;;;4.20;99.90;;;;;;5015967;28;20470;-76
2024/01/06 12:44:09;;;;;;;4.13;3.73;;;4.30;99.90;;;;;;5036417;28;20581;-79
2024/01/06 12:46:36;;;;;;;3.67;3.33;;;4.30;99.90;;;;;;5026753;28;20508;-77
2024/01/06 12:49:03;;;;;;;5.53;4.20;;;4.20;99.90;;;;;;5026510;28;20472;-81
2024/01/06 12:51:30;;;;;;;4.13;3.27;;;4.20;99.90;;;;;;5015985;28;20498;-82
2024/01/06 12:53:58;;;;;;;2.83;2.63;;;4.30;99.90;;;;;;5040729;28;20438;-76